Walker, Kentucky
Current Conditions -  °F | °C
As of 1:35 PM on Saturday 25 Oct 2014 (Local Time) from K1A6 Reporting Station
Overcast Overcast  
Wind Chill: 66°   Ceiling: 5000
Heat Index: 66°   Visibility: 10mi
Dew Point: 49°   Wind: 0mph
Humidity: 55%   Direction: NA
Pressure: 30.06"   Gusts: NA
Location:  36.89°N, 83.71°W
Report Text: K1A6 251735Z AUTO 00000KT 10SM SCT043 OVC050 19/10 A3006 RMK AO2 T01890096
Loading
Personal Weather Stations






























Interactive Weather Map
Tropical Storm Tracking
New forecast layout! Learn more

10-Day Weather Forecast

Advertisements
Track Severe Weather on mobile